createdAt,value
2022-09-04T00:00:26.377Z,100402.44
2022-09-04T00:02:52.697Z,100407.28
2022-09-04T00:05:20.202Z,100413.00
2022-09-04T00:07:46.745Z,100411.59
2022-09-04T00:10:13.058Z,100416.59
2022-09-04T00:12:39.361Z,100419.69
2022-09-04T00:15:05.664Z,100407.72
2022-09-04T00:17:31.964Z,100421.13
2022-09-04T00:19:59.524Z,100419.44
2022-09-04T00:22:26.249Z,100419.56
2022-09-04T00:24:52.547Z,100411.44
2022-09-04T00:27:18.853Z,100412.59
2022-09-04T00:29:45.157Z,100410.00
2022-09-04T00:32:11.466Z,100409.03
2022-09-04T00:34:37.785Z,100416.31
2022-09-04T00:37:04.521Z,100421.44
2022-09-04T00:39:30.836Z,100424.56
2022-09-04T00:41:57.169Z,100418.44
2022-09-04T00:44:23.472Z,100422.84
2022-09-04T00:46:51.899Z,100420.00
2022-09-04T00:49:18.204Z,100430.00
2022-09-04T00:51:44.508Z,100424.44
2022-09-04T00:54:10.807Z,100420.16
2022-09-04T00:56:37.140Z,100421.47
2022-09-04T00:59:03.445Z,100430.56
2022-09-04T01:01:29.834Z,100427.16
2022-09-04T01:03:56.617Z,100425.47
2022-09-04T01:06:25.020Z,100435.59
2022-09-04T01:08:56.213Z,100431.03
2022-09-04T01:11:22.917Z,100433.75
2022-09-04T01:13:49.230Z,100429.91
2022-09-04T01:16:15.811Z,100437.19
2022-09-04T01:18:42.139Z,100436.28
2022-09-04T01:21:08.495Z,100437.31
2022-09-04T01:23:35.182Z,100433.44
2022-09-04T01:26:01.501Z,100442.59
2022-09-04T01:28:27.886Z,100446.28
2022-09-04T01:30:54.182Z,100445.88
2022-09-04T01:33:20.485Z,100447.56
2022-09-04T01:35:46.783Z,100440.75
2022-09-04T01:38:13.079Z,100441.59
2022-09-04T01:40:39.399Z,100443.16
2022-09-04T01:43:05.699Z,100441.59
2022-09-04T01:45:32.051Z,100441.19
2022-09-04T01:47:58.373Z,100444.63
2022-09-04T01:50:24.691Z,100447.16
2022-09-04T01:52:50.999Z,100443.03
2022-09-04T01:55:17.344Z,100450.88
2022-09-04T01:57:43.647Z,100449.16
2022-09-04T02:00:10.276Z,100451.44
2022-09-04T02:02:36.681Z,100456.03
2022-09-04T02:05:07.733Z,100457.56
2022-09-04T02:07:34.730Z,100463.16
2022-09-04T02:10:01.028Z,100452.59
2022-09-04T02:12:27.378Z,100457.81
2022-09-04T02:14:54.019Z,100454.41
2022-09-04T02:17:20.377Z,100457.56
2022-09-04T02:19:47.661Z,100453.31
2022-09-04T02:22:15.166Z,100454.59
2022-09-04T02:24:41.460Z,100446.34
2022-09-04T02:27:07.764Z,100448.16
2022-09-04T02:29:34.067Z,100455.16
2022-09-04T02:32:00.429Z,100456.03
2022-09-04T02:34:26.763Z,100456.88
2022-09-04T02:36:53.066Z,100463.00
2022-09-04T02:39:19.393Z,100463.94
2022-09-04T02:41:50.715Z,100465.38
2022-09-04T02:44:17.020Z,100467.38
2022-09-04T02:46:43.578Z,100467.69
2022-09-04T02:49:09.888Z,100469.41
2022-09-04T02:51:39.192Z,100475.41
2022-09-04T02:54:05.498Z,100481.22
2022-09-04T02:56:31.803Z,100475.41
2022-09-04T02:58:58.108Z,100478.53
2022-09-04T03:01:24.437Z,100479.25
2022-09-04T03:03:50.793Z,100486.38
2022-09-04T03:06:17.099Z,100482.84
2022-09-04T03:08:43.400Z,100482.84
2022-09-04T03:11:12.464Z,100483.94
2022-09-04T03:13:38.759Z,100495.66
2022-09-04T03:16:05.118Z,100484.53
2022-09-04T03:18:31.467Z,100482.81
2022-09-04T03:20:58.030Z,100486.38
2022-09-04T03:23:24.535Z,100481.09
2022-09-04T03:25:50.865Z,100487.38
2022-09-04T03:28:17.245Z,100493.78
2022-09-04T03:30:43.568Z,100494.44
2022-09-04T03:33:11.136Z,100496.19
2022-09-04T03:35:37.715Z,100497.72
2022-09-04T03:38:04.027Z,100501.41
2022-09-04T03:40:30.376Z,100492.16
2022-09-04T03:42:56.687Z,100491.03
2022-09-04T03:45:22.996Z,100495.88
2022-09-04T03:47:49.321Z,100494.75
2022-09-04T03:50:15.629Z,100495.28
2022-09-04T03:52:41.977Z,100498.09
2022-09-04T03:55:08.281Z,100500.97
2022-09-04T03:57:34.605Z,100498.22
2022-09-04T04:00:00.953Z,100503.81
2022-09-04T04:02:27.322Z,100504.06
2022-09-04T04:04:53.667Z,100511.50
2022-09-04T04:07:20.005Z,100508.09
2022-09-04T04:09:46.303Z,100508.69
2022-09-04T04:12:13.069Z,100513.81
2022-09-04T04:14:39.417Z,100511.94
2022-09-04T04:17:06.004Z,100516.38
2022-09-04T04:19:33.741Z,100520.91
2022-09-04T04:22:00.055Z,100519.41
2022-09-04T04:24:30.418Z,100525.59
2022-09-04T04:26:56.725Z,100525.91
2022-09-04T04:29:25.340Z,100522.91
2022-09-04T04:32:10.423Z,100518.50
2022-09-04T04:34:36.729Z,100537.25
2022-09-04T04:37:03.053Z,100530.59
2022-09-04T04:39:30.382Z,100537.44
2022-09-04T04:42:05.889Z,100535.75
2022-09-04T04:44:50.976Z,100534.44
2022-09-04T04:47:17.292Z,100538.34
2022-09-04T04:49:43.599Z,100539.31
2022-09-04T04:52:09.917Z,100544.44
2022-09-04T04:54:36.226Z,100554.84
2022-09-04T04:57:03.724Z,100546.31
2022-09-04T04:59:30.020Z,100549.19
2022-09-04T05:01:56.468Z,100557.97
2022-09-04T05:04:23.180Z,100561.41
2022-09-04T05:06:49.807Z,100553.03
2022-09-04T05:09:16.112Z,100554.59
2022-09-04T05:11:42.409Z,100555.56
2022-09-04T05:14:08.707Z,100562.28
2022-09-04T05:16:35.072Z,100562.84
2022-09-04T05:19:01.428Z,100570.06
2022-09-04T05:21:27.747Z,100570.38
2022-09-04T05:23:54.047Z,100582.19
2022-09-04T05:26:20.393Z,100584.28
2022-09-04T05:28:46.725Z,100575.13
2022-09-04T05:31:13.116Z,100574.75
2022-09-04T05:33:39.448Z,100583.19
2022-09-04T05:36:05.755Z,100590.19
2022-09-04T05:38:32.047Z,100590.63
2022-09-04T05:40:58.368Z,100590.22
2022-09-04T05:43:24.664Z,100599.88
2022-09-04T05:45:50.986Z,100599.19
2022-09-04T05:48:17.295Z,100600.00
2022-09-04T05:50:43.652Z,100603.13
2022-09-04T05:53:10.021Z,100613.31
2022-09-04T05:55:36.331Z,100619.22
2022-09-04T05:58:02.644Z,100623.09
2022-09-04T06:00:28.939Z,100619.09
2022-09-04T06:02:55.367Z,100622.41
2022-09-04T06:05:21.741Z,100619.84
2022-09-04T06:07:48.055Z,100622.53
2022-09-04T06:10:14.359Z,100628.56
2022-09-04T06:12:40.683Z,100618.25
2022-09-04T06:15:06.991Z,100634.19
2022-09-04T06:17:33.292Z,100629.75
2022-09-04T06:19:59.594Z,100635.78
2022-09-04T06:22:25.908Z,100636.50
2022-09-04T06:24:52.229Z,100636.81
2022-09-04T06:27:18.527Z,100641.69
2022-09-04T06:29:44.832Z,100647.28
2022-09-04T06:32:11.127Z,100646.28
2022-09-04T06:34:37.435Z,100648.97
2022-09-04T06:37:03.734Z,100648.59
2022-09-04T06:39:30.675Z,100657.84
2022-09-04T06:41:56.963Z,100668.00
2022-09-04T06:44:23.445Z,100659.28
2022-09-04T06:46:49.828Z,100661.72
2022-09-04T06:49:16.184Z,100676.16
2022-09-04T06:51:42.917Z,100668.72
2022-09-04T06:54:09.227Z,100675.28
2022-09-04T06:56:35.535Z,100664.66
2022-09-04T06:59:01.845Z,100674.00
2022-09-04T07:01:30.068Z,100675.25
2022-09-04T07:03:56.466Z,100675.38
2022-09-04T07:06:22.913Z,100673.13
2022-09-04T07:08:49.212Z,100684.66
2022-09-04T07:11:15.557Z,100681.75
2022-09-04T07:13:41.864Z,100683.25
2022-09-04T07:16:09.335Z,100688.66
2022-09-04T07:18:35.708Z,100687.66
2022-09-04T07:21:02.262Z,100691.19
2022-09-04T07:23:28.732Z,100689.78
2022-09-04T07:25:56.648Z,100682.69
2022-09-04T07:28:22.879Z,100689.63
2022-09-04T07:30:49.236Z,100689.88
2022-09-04T07:33:15.921Z,100691.84
2022-09-04T07:35:42.263Z,100692.66
2022-09-04T07:38:08.560Z,100688.03
2022-09-04T07:40:34.878Z,100700.41
2022-09-04T07:43:05.885Z,100696.56
2022-09-04T07:45:32.380Z,100695.44
2022-09-04T07:47:59.057Z,100701.16
2022-09-04T07:50:25.431Z,100705.78
2022-09-04T07:52:51.969Z,100713.75
2022-09-04T07:55:18.260Z,100708.25
2022-09-04T07:57:44.563Z,100701.41
2022-09-04T08:00:13.586Z,100708.72
2022-09-04T08:02:39.957Z,100713.72
2022-09-04T08:05:06.334Z,100716.28
2022-09-04T08:07:32.663Z,100721.56
2022-09-04T08:09:58.960Z,100715.84
2022-09-04T08:12:25.639Z,100721.97
2022-09-04T08:14:51.939Z,100718.25
2022-09-04T08:17:20.810Z,100726.22
2022-09-04T08:19:47.130Z,100731.97
2022-09-04T08:22:13.505Z,100723.75
2022-09-04T08:24:40.523Z,100726.34
2022-09-04T08:27:09.233Z,100733.09
2022-09-04T08:29:35.528Z,100729.00
2022-09-04T08:32:04.409Z,100735.97
2022-09-04T08:34:30.711Z,100734.25
2022-09-04T08:36:57.028Z,100735.19
2022-09-04T08:39:23.449Z,100734.53
2022-09-04T08:41:50.043Z,100741.06
2022-09-04T08:44:16.354Z,100743.94
2022-09-04T08:46:47.462Z,100730.53
2022-09-04T08:49:17.014Z,100741.06
2022-09-04T08:51:43.333Z,100739.91
2022-09-04T08:54:09.638Z,100734.47
2022-09-04T08:56:36.274Z,100735.88
2022-09-04T08:59:02.585Z,100738.13
2022-09-04T09:01:29.502Z,100740.47
2022-09-04T09:03:55.935Z,100740.97
2022-09-04T09:06:22.291Z,100732.97
2022-09-04T09:08:48.695Z,100734.16
2022-09-04T09:11:15.007Z,100734.31
2022-09-04T09:13:43.590Z,100734.00
2022-09-04T09:16:09.900Z,100737.75
2022-09-04T09:18:37.290Z,100727.50
2022-09-04T09:21:07.038Z,100728.97
2022-09-04T09:23:33.360Z,100726.56
2022-09-04T09:26:06.219Z,100723.59
2022-09-04T09:28:32.812Z,100735.22
2022-09-04T09:30:59.172Z,100731.50
2022-09-04T09:33:25.548Z,100737.91
2022-09-04T09:35:55.858Z,100713.81
2022-09-04T09:38:22.241Z,100721.56
2022-09-04T09:40:48.540Z,100722.53
2022-09-04T09:43:14.876Z,100721.25
2022-09-04T09:45:42.027Z,100727.09
2022-09-04T09:48:11.522Z,100727.81
2022-09-04T09:50:38.421Z,100731.19
2022-09-04T09:53:04.725Z,100733.59
2022-09-04T09:55:31.024Z,100726.03
2022-09-04T09:57:57.343Z,100726.38
2022-09-04T10:00:25.655Z,100726.78
2022-09-04T10:02:52.003Z,100722.72
2022-09-04T10:05:19.276Z,100721.31
2022-09-04T10:07:45.667Z,100720.91
2022-09-04T10:10:12.206Z,100716.72
2022-09-04T10:12:41.816Z,100708.84
2022-09-04T10:15:08.127Z,100717.63
2022-09-04T10:17:34.427Z,100709.75
2022-09-04T10:20:00.731Z,100707.19
2022-09-04T10:22:27.023Z,100702.59
2022-09-04T10:24:53.597Z,100705.06
2022-09-04T10:27:19.895Z,100706.41
2022-09-04T10:29:46.418Z,100702.47
2022-09-04T10:32:12.728Z,100709.13
2022-09-04T10:34:39.045Z,100710.47
2022-09-04T10:37:05.350Z,100708.69
2022-09-04T10:39:57.716Z,100704.34
2022-09-04T10:42:24.067Z,100706.09
2022-09-04T10:44:50.520Z,100702.31
2022-09-04T10:47:16.828Z,100696.19
2022-09-04T10:49:43.137Z,100706.69
2022-09-04T10:52:09.670Z,100704.78
2022-09-04T10:54:36.004Z,100718.50
2022-09-04T10:57:02.304Z,100706.69
2022-09-04T10:59:29.136Z,100702.50
2022-09-04T11:01:55.490Z,100705.38
2022-09-04T11:04:22.466Z,100708.88
2022-09-04T11:06:49.361Z,100707.00
2022-09-04T11:09:15.668Z,100700.44
2022-09-04T11:11:42.142Z,100705.25
2022-09-04T11:14:08.441Z,100708.19
2022-09-04T11:16:34.805Z,100716.34
2022-09-04T11:19:01.158Z,100712.72
2022-09-04T11:21:29.173Z,100723.94
2022-09-04T11:23:56.270Z,100714.59
2022-09-04T11:26:24.428Z,100718.59
2022-09-04T11:28:51.309Z,100717.22
2022-09-04T11:31:20.753Z,100716.34
2022-09-04T11:33:47.883Z,100728.69
2022-09-04T11:36:14.282Z,100716.78
2022-09-04T11:38:43.786Z,100715.72
2022-09-04T11:41:10.187Z,100705.50
2022-09-04T11:43:37.414Z,100708.44
2022-09-04T11:46:03.950Z,100710.88
2022-09-04T11:48:30.303Z,100725.09
2022-09-04T11:51:01.446Z,100715.56
2022-09-04T11:53:27.797Z,100723.13
2022-09-04T11:55:54.095Z,100723.63
2022-09-04T11:58:20.507Z,100712.88
2022-09-04T12:00:47.173Z,100718.38
2022-09-04T12:03:13.483Z,100719.53
2022-09-04T12:05:39.771Z,100725.94
2022-09-04T12:08:07.049Z,100729.72
2022-09-04T12:10:33.364Z,100729.47
2022-09-04T12:13:00.434Z,100722.19
2022-09-04T12:15:41.183Z,100725.53
2022-09-04T12:18:08.435Z,100710.03
2022-09-04T12:20:34.731Z,100724.94
2022-09-04T12:23:01.610Z,100716.16
2022-09-04T12:25:27.923Z,100725.00
2022-09-04T12:27:54.261Z,100733.72
2022-09-04T12:30:20.567Z,100726.41
2022-09-04T12:32:46.882Z,100723.59
2022-09-04T12:35:13.272Z,100722.75
2022-09-04T12:37:43.415Z,100717.56
2022-09-04T12:40:09.825Z,100719.97
2022-09-04T12:42:36.237Z,100719.31
2022-09-04T12:45:02.592Z,100715.19
2022-09-04T12:47:28.915Z,100719.66
2022-09-04T12:49:58.115Z,100720.91
2022-09-04T12:52:24.424Z,100718.28
2022-09-04T12:54:51.219Z,100730.25
2022-09-04T12:57:17.482Z,100735.81
2022-09-04T12:59:45.556Z,100733.34
2022-09-04T13:02:12.092Z,100725.00
2022-09-04T13:04:40.531Z,100721.25
2022-09-04T13:07:15.656Z,100731.50
2022-09-04T13:09:42.751Z,100718.94
2022-09-04T13:12:19.692Z,100712.25
2022-09-04T13:14:46.138Z,100723.50
2022-09-04T13:17:12.573Z,100722.88
2022-09-04T13:19:38.901Z,100720.19
2022-09-04T13:22:05.224Z,100723.69
2022-09-04T13:24:35.769Z,100720.69
2022-09-04T13:27:02.508Z,100714.63
2022-09-04T13:29:29.465Z,100714.84
2022-09-04T13:31:56.152Z,100714.97
2022-09-04T13:34:24.231Z,100720.25
2022-09-04T13:36:54.125Z,100721.75
2022-09-04T13:39:20.754Z,100727.16
2022-09-04T13:41:47.941Z,100729.72
2022-09-04T13:44:14.276Z,100724.69
2022-09-04T13:46:40.648Z,100730.41
2022-09-04T13:49:07.048Z,100721.28
2022-09-04T13:51:33.355Z,100716.78
2022-09-04T13:53:59.672Z,100724.44
2022-09-04T13:56:26.324Z,100721.59
2022-09-04T13:58:52.632Z,100715.94
2022-09-04T14:01:21.661Z,100719.53
2022-09-04T14:03:48.643Z,100717.44
2022-09-04T14:06:15.018Z,100719.09
2022-09-04T14:08:43.104Z,100709.38
2022-09-04T14:11:10.021Z,100715.09
2022-09-04T14:13:37.987Z,100720.13
2022-09-04T14:16:04.522Z,100722.53
2022-09-04T14:18:31.087Z,100726.75
2022-09-04T14:21:01.597Z,100729.56
2022-09-04T14:23:29.712Z,100716.53
2022-09-04T14:25:56.040Z,100715.50
2022-09-04T14:28:22.476Z,100715.09
2022-09-04T14:30:48.786Z,100710.78
2022-09-04T14:33:19.470Z,100722.81
2022-09-04T14:35:49.292Z,100721.63
2022-09-04T14:38:16.212Z,100722.53
2022-09-04T14:40:42.517Z,100724.16
2022-09-04T14:43:08.829Z,100722.28
2022-09-04T14:45:35.264Z,100719.59
2022-09-04T14:48:03.594Z,100722.09
2022-09-04T14:50:30.229Z,100719.69
2022-09-04T14:52:56.548Z,100728.75
2022-09-04T14:55:22.847Z,100734.81
2022-09-04T14:57:50.176Z,100730.81
2022-09-04T15:00:19.742Z,100729.25
2022-09-04T15:02:46.064Z,100729.06
2022-09-04T15:05:12.388Z,100726.00
2022-09-04T15:07:38.688Z,100734.25
2022-09-04T15:10:07.329Z,100741.78
2022-09-04T15:12:33.663Z,100746.66
2022-09-04T15:14:59.963Z,100755.47
2022-09-04T15:17:28.291Z,100752.06
2022-09-04T15:19:55.421Z,100748.66
2022-09-04T15:22:21.725Z,100755.03
2022-09-04T15:24:48.041Z,100753.72
2022-09-04T15:27:16.277Z,100747.78
2022-09-04T15:29:42.921Z,100754.75
2022-09-04T15:32:14.017Z,100743.47
2022-09-04T15:34:40.747Z,100742.25
2022-09-04T15:37:07.046Z,100745.31
2022-09-04T15:39:33.420Z,100752.03
2022-09-04T15:42:00.091Z,100749.38
2022-09-04T15:44:29.953Z,100755.97
2022-09-04T15:46:56.718Z,100756.00
2022-09-04T15:49:23.035Z,100753.13
2022-09-04T15:51:49.344Z,100754.16
2022-09-04T15:54:15.675Z,100753.78
2022-09-04T15:56:45.401Z,100760.66
2022-09-04T15:59:14.720Z,100755.97
2022-09-04T16:01:43.095Z,100758.34
2022-09-04T16:04:12.525Z,100764.41
2022-09-04T16:06:38.824Z,100769.41
2022-09-04T16:09:05.135Z,100769.16
2022-09-04T16:11:31.542Z,100766.50
2022-09-04T16:13:59.057Z,100771.13
2022-09-04T16:16:25.385Z,100775.81
2022-09-04T16:18:51.760Z,100775.09
2022-09-04T16:21:18.365Z,100771.66
2022-09-04T16:23:44.671Z,100773.66
2022-09-04T16:26:11.288Z,100778.97
2022-09-04T16:28:37.926Z,100789.19
2022-09-04T16:31:04.637Z,100784.13
2022-09-04T16:33:30.920Z,100781.38
2022-09-04T16:35:57.219Z,100788.13
2022-09-04T16:38:24.356Z,100785.00
2022-09-04T16:40:54.225Z,100785.00
2022-09-04T16:43:21.532Z,100780.75
2022-09-04T16:45:48.495Z,100788.59
2022-09-04T16:48:33.725Z,100785.63
2022-09-04T16:51:23.506Z,100780.94
2022-09-04T16:53:52.124Z,100790.81
2022-09-04T16:56:18.424Z,100792.53
2022-09-04T16:58:46.080Z,100788.16
2022-09-04T17:01:14.361Z,100804.88
2022-09-04T17:03:41.750Z,100794.88
2022-09-04T17:06:08.996Z,100792.63
2022-09-04T17:08:35.321Z,100801.91
2022-09-04T17:11:07.683Z,100804.31
2022-09-04T17:13:36.907Z,100805.44
2022-09-04T17:16:03.509Z,100810.44
2022-09-04T17:18:29.916Z,100807.50
2022-09-04T17:22:49.964Z,100806.66
2022-09-04T17:29:00.322Z,100805.72
2022-09-04T17:29:18.361Z,100808.84
2022-09-04T17:29:37.337Z,100812.97
2022-09-04T17:32:16.343Z,100810.78
2022-09-04T17:40:35.701Z,100813.09
2022-09-04T17:40:37.146Z,100809.53
2022-09-04T17:40:43.498Z,100815.66
2022-09-04T17:43:22.261Z,100819.13
2022-09-04T17:45:51.271Z,100828.00
2022-09-04T17:48:17.801Z,100826.81
2022-09-04T17:50:44.795Z,100826.13
2022-09-04T17:53:17.709Z,100836.91
2022-09-04T17:55:58.827Z,100837.94
2022-09-04T17:58:35.175Z,100846.56
2022-09-04T18:01:14.716Z,100843.13
2022-09-04T18:03:42.242Z,100844.88
2022-09-04T18:06:28.528Z,100848.94
2022-09-04T18:08:55.945Z,100856.16
2022-09-04T18:11:22.844Z,100859.00
2022-09-04T18:13:52.005Z,100861.41
2022-09-04T18:16:18.399Z,100869.25
2022-09-04T18:18:44.780Z,100864.47
2022-09-04T18:21:11.072Z,100863.63
2022-09-04T18:23:51.679Z,100875.94
2022-09-04T18:26:18.575Z,100874.41
2022-09-04T18:28:48.643Z,100879.03
2022-09-04T18:37:06.723Z,100873.38
2022-09-04T18:37:24.340Z,100890.09
2022-09-04T18:37:26.040Z,100881.91
2022-09-04T18:39:35.929Z,100888.59
2022-09-04T18:49:43.080Z,100889.44
2022-09-04T18:50:32.230Z,100894.72
2022-09-04T18:50:44.415Z,100894.56
2022-09-04T18:51:04.454Z,100906.34
2022-09-04T18:53:07.461Z,100910.97
2022-09-04T18:55:33.758Z,100909.06
2022-09-04T18:58:00.054Z,100910.09
2022-09-04T19:00:26.397Z,100915.06
2022-09-04T19:02:53.422Z,100915.69
2022-09-04T19:05:20.166Z,100914.47
2022-09-04T19:07:46.499Z,100915.88
2022-09-04T19:10:12.939Z,100911.09
2022-09-04T19:12:46.953Z,100916.13
2022-09-04T19:15:14.969Z,100921.78
2022-09-04T19:17:41.263Z,100917.00
2022-09-04T19:20:08.611Z,100912.81
2022-09-04T19:22:34.997Z,100923.75
2022-09-04T19:25:03.731Z,100914.91
2022-09-04T19:27:29.950Z,100917.44
2022-09-04T19:29:56.298Z,100929.56
2022-09-04T19:32:29.943Z,100928.31
2022-09-04T19:34:56.236Z,100936.53
2022-09-04T19:37:54.356Z,100928.31
2022-09-04T19:45:54.750Z,100935.16
2022-09-04T19:46:12.821Z,100934.13
2022-09-04T19:46:13.087Z,100941.13
2022-09-04T19:48:27.973Z,100943.16
2022-09-04T19:53:33.979Z,100935.28
2022-09-04T19:53:46.937Z,100937.00
2022-09-04T19:56:15.924Z,100943.72
2022-09-04T19:58:44.335Z,100944.94
2022-09-04T20:01:10.825Z,100941.50
2022-09-04T20:03:37.560Z,100946.09
2022-09-04T20:06:21.171Z,100939.03
2022-09-04T20:08:51.547Z,100956.13
2022-09-04T20:11:30.635Z,100949.31
2022-09-04T20:14:02.443Z,100951.84
2022-09-04T20:16:40.565Z,100953.19
2022-09-04T20:19:14.893Z,100956.94
2022-09-04T20:21:46.570Z,100955.53
2022-09-04T20:24:12.875Z,100947.50
2022-09-04T20:26:39.182Z,100955.47
2022-09-04T20:29:05.484Z,100959.94
2022-09-04T20:31:36.167Z,100958.69
2022-09-04T20:34:03.323Z,100952.72
2022-09-04T20:36:35.969Z,100953.56
2022-09-04T20:39:02.492Z,100958.88
2022-09-04T20:41:29.195Z,100959.81
2022-09-04T20:43:56.057Z,100965.59
2022-09-04T21:03:21.497Z,100965.75
2022-09-04T21:03:39.968Z,100969.09
2022-09-04T21:06:07.338Z,100967.00
2022-09-04T21:08:34.069Z,100969.16
2022-09-04T21:11:00.387Z,100977.09
2022-09-04T21:13:26.825Z,100972.69
2022-09-04T21:15:53.455Z,100972.22
2022-09-04T21:18:23.316Z,100976.81
2022-09-04T21:21:00.318Z,100976.72
2022-09-04T21:23:27.028Z,100983.66
2022-09-04T21:26:02.048Z,100991.25
2022-09-04T21:28:28.353Z,100985.75
2022-09-04T21:30:54.715Z,100990.88
2022-09-04T21:33:28.098Z,100987.44
2022-09-04T21:35:55.726Z,100989.31
2022-09-04T21:38:26.635Z,100990.78
2022-09-04T21:40:53.047Z,100989.50
2022-09-04T21:43:19.470Z,100987.25
2022-09-04T21:45:45.813Z,100990.41
2022-09-04T21:48:18.488Z,100990.47
2022-09-04T21:50:50.691Z,100991.91
2022-09-04T21:53:18.859Z,100992.47
2022-09-04T22:00:02.066Z,100998.25
2022-09-04T22:02:37.438Z,100998.56
2022-09-04T22:02:41.884Z,100994.41
2022-09-04T22:04:04.481Z,100997.41
2022-09-04T22:07:03.516Z,100999.72
2022-09-04T22:13:30.723Z,101001.56
2022-09-04T22:13:32.523Z,100998.69
2022-09-04T22:14:50.088Z,101001.16
2022-09-04T22:17:16.389Z,100999.72
2022-09-04T22:19:42.722Z,101011.72
2022-09-04T22:22:09.036Z,101004.00
2022-09-04T22:24:41.074Z,101001.03
2022-09-04T22:27:07.792Z,101008.47
2022-09-04T22:29:40.212Z,101006.34
2022-09-04T22:32:06.746Z,100997.06
2022-09-04T22:34:39.282Z,101008.38
2022-09-04T22:37:05.588Z,100999.66
2022-09-04T22:39:32.347Z,100998.94
2022-09-04T22:41:58.687Z,101000.53
2022-09-04T22:44:24.987Z,100999.09
2022-09-04T22:46:51.319Z,100999.22
2022-09-04T22:49:17.633Z,100998.66
2022-09-04T22:51:43.965Z,100995.22
2022-09-04T22:54:10.286Z,100997.53
2022-09-04T22:56:36.579Z,100999.50
2022-09-04T22:59:10.533Z,100994.97
2022-09-04T23:01:49.217Z,101001.53
2022-09-04T23:04:15.594Z,101003.06
2022-09-04T23:10:05.078Z,101007.25
2022-09-04T23:13:50.172Z,101006.53
2022-09-04T23:14:01.501Z,101005.03
2022-09-04T23:15:08.279Z,101003.47
2022-09-04T23:17:35.265Z,101003.78
2022-09-04T23:26:36.978Z,101011.75
2022-09-04T23:26:43.385Z,101006.19
2022-09-04T23:26:51.088Z,101003.47
2022-09-04T23:28:28.242Z,101002.31
2022-09-04T23:30:55.025Z,101014.75
2022-09-04T23:33:27.962Z,101003.88
2022-09-04T23:35:54.584Z,101007.69
2022-09-04T23:38:20.896Z,101006.13
2022-09-04T23:40:47.263Z,101000.44
2022-09-04T23:43:13.572Z,101004.13
2022-09-04T23:45:49.592Z,101006.00
2022-09-04T23:48:26.440Z,101003.69
2022-09-04T23:50:52.742Z,101007.41
2022-09-04T23:53:19.135Z,101013.66
2022-09-04T23:55:48.889Z,101013.41
2022-09-04T23:58:34.544Z,101005.25
